Madrid El Retiro

latitud = 40° 24' 40''N | longitud = 003° 40' 41''W
667 metros sobre el nivel del mar | datos mensuales

Fecha, hora, temperatura, viento dirección y velocidad, humedad y presión.

  • 24-02-2018 07:00:00 | 0.40°C | Este |5.00 km/h | 52.00% | 927.20 hPa
  • 24-02-2018 06:00:00 | 0.10°C | Sudeste |5.00 km/h | 51.00% | 927.50 hPa
  • 24-02-2018 05:00:00 | 0.80°C | Sudeste |4.00 km/h | 48.00% | 927.10 hPa
  • 24-02-2018 04:00:00 | 1.90°C | Nordeste |6.00 km/h | 45.00% | 927.00 hPa
  • 24-02-2018 03:00:00 | 2.00°C | Este |5.00 km/h | 46.00% | 927.20 hPa
  • 24-02-2018 02:00:00 | 2.60°C | Sudeste |4.00 km/h | 44.00% | 927.00 hPa
  • 24-02-2018 01:00:00 | 3.00°C | Sudoeste |3.00 km/h | 40.00% | 926.90 hPa
  • 24-02-2018 00:00:00 | 3.40°C | Oeste |4.00 km/h | 39.00% | 926.90 hPa
  • 23-02-2018 23:00:00 | 3.90°C | Noroeste |6.00 km/h | 37.00% | 927.00 hPa
  • 23-02-2018 22:00:00 | 4.30°C | Oeste |7.00 km/h | 36.00% | 926.90 hPa
  • 23-02-2018 21:00:00 | 5.30°C | Oeste |6.00 km/h | 34.00% | 926.70 hPa
  • 23-02-2018 20:00:00 | 6.40°C | Sudoeste |6.00 km/h | 32.00% | 926.70 hPa
  • 23-02-2018 19:00:00 | 7.90°C | Oeste |3.00 km/h | 30.00% | 926.50 hPa
  • 23-02-2018 18:00:00 | 9.40°C | Sudeste |3.00 km/h | 27.00% | 926.30 hPa
  • 23-02-2018 17:00:00 | 9.40°C | Este |5.00 km/h | 27.00% | 926.40 hPa
  • 23-02-2018 16:00:00 | 9.10°C | Este |6.00 km/h | 27.00% | 926.80 hPa
  • 23-02-2018 15:00:00 | 8.30°C | Nordeste |3.00 km/h | 27.00% | 927.20 hPa
  • 23-02-2018 14:00:00 | 8.10°C | Este |8.00 km/h | 31.00% | 927.60 hPa
  • 23-02-2018 13:00:00 | 6.30°C | Este |9.00 km/h | 32.00% | 928.40 hPa
  • 23-02-2018 12:00:00 | 5.50°C | Norte |6.00 km/h | 36.00% | 929.30 hPa
  • 23-02-2018 11:00:00 | 3.70°C | Nordeste |2.00 km/h | 41.00% | 929.50 hPa
  • 23-02-2018 10:00:00 | 1.50°C | Sudeste |4.00 km/h | 44.00% | 929.60 hPa
  • 23-02-2018 09:00:00 | 0.50°C | Este |4.00 km/h | 46.00% | 929.60 hPa
  • 23-02-2018 08:00:00 | -0.60°C | Nordeste |3.00 km/h | 45.00% | 929.40 hPa